Capitol Logistics 1139


EBLG
Liège Airport
Liege, BE
LSGG
Geneve-Cointrin Airport
Geneva, CH

Activity Log

Date Flight Route Aircraft Duration
11/27/2019 CPX1139 Not Available B738 1h 11m
10/23/2019 CPX739 N0443F330 LNO8R LNO UN852 POGOL ARPUS UN852 MOROK UZ24 AKITO AKIT3R B738 1h 16m
09/30/2019 CPX739 N0420F270 LNO7S LNO UN852 PELIX/N0445F330 UN852 POGOL ARPUS UN852 MOROK UZ24 AKITO AKIT3R B738 1h 10m

Route Details

Aircraft Information
Primary: Boeing 737-800BCF
Backup: Not Available
Route Data
Distance: 283nm
Sched. Duration: 1h 00m
Avg. Duration: 1h 12m (+13m)
Times Flown: 3
Recm'd Route: Not Available
Planned Altitude: 33,000ft
Origin Wx: EBLG 281150Z 19014KT CAVOK 05/M00 Q1016 NOSIG
Dest. Wx: LSGG 281150Z AUTO 17003KT 110V200 CAVOK 07/M05 Q1021
Notes:

Financial History
Total Freight: 104,017lbs
Average Load: 34,672lbs/flt
Fuel Used: 19,011lbs
Avg. Fuel Used: 6,337lbs/flt
Fuel Expense: $21,102
Avg. Fuel Expense: $7,034
Avg. Fuel Cost: $1.11/lbs
Total Gross Income: $215,637
Pilot Pay: $697
Total Expenses: $23,445
Total Revenue: $170,264
Average Revenue: $71,879.07